Terminal Aerodrome Forecast
Issued by NWS Boston, MA

Current Version | Previous Version | Text Only | Print | Product List | Glossary On
Versions: 1 2 3 4 5 6 7 8 9 10 11 12 13 14 15 16 17 18 19 20 21
000 FTUS41 KBOX 181122 TAFORH TAF KORH 181122Z 1812/1912 05005KT P6SM BKN015 FM181500 07007KT P6SM BKN025 FM181800 12006KT P6SM FEW025 FM190200 21005KT P6SM BKN150 FM191000 27010KT P6SM SCT250=

USA.gov is the U.S. government's official web portal to all federal, state and local government web resources and services.